Impacts METAR Board
IDs:

KFLL - Ft Lauderdale-Hollyw, FL, US

Updated at: 1000 UTC 15 Dec 2018
Potential Impact None Slight Moderate High
Time 14/22Z 14/23Z 15/00Z 15/01Z 15/02Z 15/03Z 15/04Z 15/05Z 15/06Z 15/07Z 15/08Z 15/09Z 15/10Z
Temp79 77 77 77 77 77 77 77 77 78 78 78 77
Dewpt73 74 74 74 74 75 75 75 75 76 76 76 76
Altim30.00 30.01 30.02 30.03 30.03 30.02 30.02 30.02 30.01 30.01 30.00 30.00 30.00
VIS10 10 10 10 10 10 10 10 10 10 10 10 10
CIG250 -- -- 250 250 250 250 250 220 150 150 75 75
CoverOVCSCTFEWBKNOVCOVCOVCBKNBKNBKNBKNOVCBKN
FltCatVFRVFRVFRVFRVFRVFRVFRVFRVFRVFRVFRVFRVFR
WX--------------------------
WDir170160160150150150160160160170170190180
WSpd12 9 7 7 10 11 8 8 10 11 8 6 6
WGst16 -- -- -- -- -- -- -- -- 18 -- -- --
Raw hourly METARs
KFLL 142153Z 17012G16KT 10SM FEW021 SCT160 OVC250 26/23 A3000 RMK AO2 SLP159 T02610228
KFLL 142253Z 16009KT 10SM FEW021 FEW100 SCT250 25/23 A3001 RMK AO2 SLP162 T02500233
KFLL 142353Z 16007KT 10SM FEW250 25/23 A3002 RMK AO2 SLP167 T02500233 10278 20250 53012
KFLL 150053Z 15007KT 10SM FEW022 BKN250 25/23 A3003 RMK AO2 SLP168 T02500233
KFLL 150153Z 15010KT 10SM FEW021 FEW150 OVC250 25/23 A3003 RMK AO2 SLP170 T02500233
KFLL 150253Z 15011KT 10SM FEW020 OVC250 25/24 A3002 RMK AO2 SLP166 T02500239 58001
KFLL 150353Z 16008KT 10SM FEW020 OVC250 25/24 A3002 RMK AO2 SLP165 T02500239
KFLL 150453Z 16008KT 10SM FEW019 BKN250 25/24 A3002 RMK AO2 SLP164 T02500239 402780233
KFLL 150553Z 16010KT 10SM FEW019 FEW046 BKN220 25/24 A3001 RMK AO2 SLP161 T02500239 10256 20250 58004
KFLL 150653Z 17011G18KT 10SM FEW018 SCT048 BKN150 26/24 A3001 RMK AO2 SLP160 T02560244
KFLL 150753Z 17008KT 10SM FEW020 SCT085 BKN150 26/24 A3000 RMK AO2 SLP157 T02560244
KFLL 150853Z 19006KT 10SM FEW020 BKN075 OVC100 26/24 A3000 RMK AO2 SLP157 T02560244 56004
KFLL 150953Z 18006KT 10SM SCT055 BKN075 BKN110 25/24 A3000 RMK AO2 SLP158 T02500244



Page loaded:  10:56 UTC  |   02:56 AM Pacific  |   03:56 AM Mountain  |   04:56 AM Central  |   05:56 AM Eastern

 

ADVISORIES

FORECASTS

FORECASTS

OBSERVATIONS

USER TOOLS

ABOUT US